createdAt,value
2024-02-23T00:00:26.433Z,99467.46
2024-02-23T00:01:19.663Z,99464.28
2024-02-23T00:01:53.128Z,99467.28
2024-02-23T00:02:26.769Z,99465.34
2024-02-23T00:03:00.109Z,99467.63
2024-02-23T00:03:37.327Z,99468.33
2024-02-23T00:04:11.267Z,99467.45
2024-02-23T00:04:44.536Z,99464.63
2024-02-23T00:05:17.819Z,99467.45
2024-02-23T00:05:51.073Z,99467.98
2024-02-23T00:06:28.609Z,99466.77
2024-02-23T00:07:04.044Z,99462.72
2024-02-23T00:07:37.227Z,99466.23
2024-02-23T00:08:10.422Z,99467.10
2024-02-23T00:08:44.226Z,99468.67
2024-02-23T00:09:17.374Z,99470.42
2024-02-23T00:09:50.412Z,99468.67
2024-02-23T00:10:23.889Z,99465.49
2024-02-23T00:10:57.088Z,99467.96
2024-02-23T00:11:30.485Z,99468.13
2024-02-23T00:12:04.711Z,99468.47
2024-02-23T00:12:38.296Z,99468.64
2024-02-23T00:13:11.563Z,99468.81
2024-02-23T00:13:44.770Z,99469.00
2024-02-23T00:14:19.782Z,99474.27
2024-02-23T00:14:52.929Z,99469.15
2024-02-23T00:15:26.595Z,99469.31
2024-02-23T00:15:59.767Z,99469.48
2024-02-23T00:16:32.778Z,99470.55
2024-02-23T00:17:06.082Z,99473.35
2024-02-23T00:17:40.622Z,99473.68
2024-02-23T00:18:16.145Z,99474.05
2024-02-23T00:18:49.749Z,99472.11
2024-02-23T00:19:23.841Z,99466.14
2024-02-23T00:19:57.256Z,99468.59
2024-02-23T00:20:30.595Z,99468.77
2024-02-23T00:21:04.105Z,99469.67
2024-02-23T00:21:38.092Z,99474.59
2024-02-23T00:22:11.371Z,99477.39
2024-02-23T00:22:44.526Z,99481.09
2024-02-23T00:23:17.732Z,99479.69
2024-02-23T00:23:50.946Z,99479.17
2024-02-23T00:24:24.190Z,99478.98
2024-02-23T00:24:57.478Z,99482.14
2024-02-23T00:25:30.691Z,99483.71
2024-02-23T00:26:04.301Z,99489.52
2024-02-23T00:26:37.502Z,99485.65
2024-02-23T00:27:10.486Z,99488.61
2024-02-23T00:27:43.578Z,99485.27
2024-02-23T00:28:16.626Z,99486.33
2024-02-23T00:28:49.932Z,99490.35
2024-02-23T00:29:23.843Z,99484.71
2024-02-23T00:29:57.295Z,99485.94
2024-02-23T00:30:30.488Z,99486.30
2024-02-23T00:31:03.559Z,99479.61
2024-02-23T00:31:42.165Z,99485.05
2024-02-23T00:32:15.432Z,99485.58
2024-02-23T00:32:48.722Z,99482.23
2024-02-23T00:33:21.899Z,99476.10
2024-02-23T00:33:55.173Z,99484.17
2024-02-23T00:34:28.593Z,99487.87
2024-02-23T00:35:01.883Z,99487.88
2024-02-23T00:35:35.295Z,99488.40
2024-02-23T00:36:08.652Z,99486.30
2024-02-23T00:36:43.076Z,99481.20
2024-02-23T00:37:16.511Z,99482.26
2024-02-23T00:37:49.683Z,99482.09
2024-02-23T00:38:22.907Z,99479.27
2024-02-23T00:38:56.067Z,99475.94
2024-02-23T00:39:29.134Z,99477.52
2024-02-23T00:40:05.431Z,99475.23
2024-02-23T00:40:39.407Z,99474.34
2024-02-23T00:41:12.589Z,99473.11
2024-02-23T00:41:45.699Z,99465.02
2024-02-23T00:42:18.782Z,99463.61
2024-02-23T00:42:52.070Z,99462.73
2024-02-23T00:43:25.361Z,99465.52
2024-02-23T00:43:58.626Z,99462.52
2024-02-23T00:44:31.859Z,99461.46
2024-02-23T00:45:06.715Z,99460.58
2024-02-23T00:45:39.887Z,99463.20
2024-02-23T00:46:15.344Z,99460.92
2024-02-23T00:46:49.278Z,99457.60
2024-02-23T00:47:22.523Z,99452.84
2024-02-23T00:47:55.882Z,99455.66
2024-02-23T00:48:29.116Z,99455.66
2024-02-23T00:49:02.468Z,99455.33
2024-02-23T00:49:35.822Z,99456.55
2024-02-23T00:50:09.434Z,99453.40
2024-02-23T00:50:42.675Z,99451.83
2024-02-23T00:51:15.877Z,99452.00
2024-02-23T00:51:49.085Z,99446.57
2024-02-23T00:52:22.351Z,99446.75
2024-02-23T00:52:55.777Z,99447.63
2024-02-23T00:53:29.273Z,99447.80
2024-02-23T00:54:02.476Z,99449.57
2024-02-23T00:54:35.516Z,99446.94
2024-02-23T00:55:09.454Z,99449.02
2024-02-23T00:55:42.690Z,99447.98
2024-02-23T00:56:16.189Z,99446.91
2024-02-23T00:56:51.554Z,99445.86
2024-02-23T00:57:30.976Z,99449.89
2024-02-23T00:58:04.812Z,99440.41
2024-02-23T00:58:37.942Z,99441.81
2024-02-23T00:59:10.994Z,99444.43
2024-02-23T00:59:44.305Z,99439.17
2024-02-23T01:00:17.541Z,99437.41
2024-02-23T01:00:50.816Z,99440.21
2024-02-23T01:01:24.003Z,99439.50
2024-02-23T01:01:57.202Z,99438.63
2024-02-23T01:02:30.786Z,99440.20
2024-02-23T01:03:04.278Z,99436.16
2024-02-23T01:03:37.472Z,99437.39
2024-02-23T01:04:10.802Z,99433.00
2024-02-23T01:04:44.281Z,99433.00
2024-02-23T01:05:18.398Z,99438.80
2024-02-23T01:05:51.695Z,99436.35
2024-02-23T01:06:26.401Z,99431.80
2024-02-23T01:06:59.991Z,99432.52
2024-02-23T01:07:33.926Z,99433.38
2024-02-23T01:08:07.590Z,99433.73
2024-02-23T01:08:41.471Z,99432.33
2024-02-23T01:09:14.687Z,99433.38
2024-02-23T01:09:47.981Z,99433.92
2024-02-23T01:10:21.226Z,99431.63
2024-02-23T01:10:55.005Z,99429.71
2024-02-23T01:11:28.541Z,99432.86
2024-02-23T01:12:02.422Z,99430.23
2024-02-23T01:12:35.972Z,99429.36
2024-02-23T01:13:09.813Z,99431.12
2024-02-23T01:13:43.425Z,99427.24
2024-02-23T01:14:17.280Z,99431.28
2024-02-23T01:14:50.773Z,99431.11
2024-02-23T01:15:24.388Z,99426.55
2024-02-23T01:15:57.743Z,99426.90
2024-02-23T01:16:33.851Z,99422.87
2024-02-23T01:17:07.392Z,99418.30
2024-02-23T01:17:40.816Z,99420.06
2024-02-23T01:18:14.386Z,99419.02
2024-02-23T01:18:47.860Z,99418.85
2024-02-23T01:19:21.385Z,99419.37
2024-02-23T01:19:54.879Z,99419.54
2024-02-23T01:20:28.396Z,99421.49
2024-02-23T01:21:02.156Z,99416.05
2024-02-23T01:21:35.536Z,99420.44
2024-02-23T01:22:09.182Z,99422.71
2024-02-23T01:22:42.655Z,99423.07
2024-02-23T01:23:15.953Z,99420.10
2024-02-23T01:23:49.364Z,99412.90
2024-02-23T01:24:22.799Z,99416.77
2024-02-23T01:24:56.145Z,99417.83
2024-02-23T01:25:29.493Z,99416.59
2024-02-23T01:26:03.951Z,99417.29
2024-02-23T01:26:39.844Z,99417.11
2024-02-23T01:27:14.916Z,99416.77
2024-02-23T01:27:49.462Z,99414.82
2024-02-23T01:28:23.217Z,99410.62
2024-02-23T01:28:56.563Z,99412.19
2024-02-23T01:29:29.927Z,99408.15
2024-02-23T01:30:03.486Z,99410.60
2024-02-23T01:30:36.935Z,99406.21
2024-02-23T01:31:11.569Z,99409.04
2024-02-23T01:31:45.153Z,99405.86
2024-02-23T01:32:18.535Z,99405.35
2024-02-23T01:32:52.158Z,99408.69
2024-02-23T01:33:25.589Z,99409.05
2024-02-23T01:33:59.057Z,99404.48
2024-02-23T01:34:32.386Z,99407.82
2024-02-23T01:35:07.195Z,99401.51
2024-02-23T01:35:40.854Z,99404.49
2024-02-23T01:36:14.251Z,99400.80
2024-02-23T01:36:48.288Z,99399.92
2024-02-23T01:37:25.794Z,99406.41
2024-02-23T01:37:59.361Z,99404.14
2024-02-23T01:38:34.069Z,99404.30
2024-02-23T01:39:08.561Z,99403.95
2024-02-23T01:39:42.419Z,99406.40
2024-02-23T01:40:15.878Z,99403.94
2024-02-23T01:40:49.257Z,99406.22
2024-02-23T01:41:22.687Z,99407.61
2024-02-23T01:41:56.185Z,99405.69
2024-02-23T01:42:29.323Z,99405.15
2024-02-23T01:43:04.611Z,99407.96
2024-02-23T01:43:37.907Z,99408.48
2024-02-23T01:44:12.159Z,99406.37
2024-02-23T01:44:45.271Z,99411.29
2024-02-23T01:45:18.315Z,99408.66
2024-02-23T01:45:51.941Z,99404.61
2024-02-23T01:46:25.339Z,99408.83
2024-02-23T01:46:58.714Z,99406.02
2024-02-23T01:47:32.107Z,99409.52
2024-02-23T01:48:05.953Z,99408.65
2024-02-23T01:48:39.296Z,99414.98
2024-02-23T01:49:12.867Z,99415.52
2024-02-23T01:49:48.773Z,99410.94
2024-02-23T01:50:22.037Z,99411.30
2024-02-23T01:50:55.412Z,99408.84
2024-02-23T01:51:28.862Z,99414.98
2024-02-23T01:52:04.049Z,99410.41
2024-02-23T01:52:38.306Z,99412.36
2024-02-23T01:53:13.990Z,99410.59
2024-02-23T01:53:47.528Z,99412.34
2024-02-23T01:54:21.096Z,99400.05
2024-02-23T01:54:55.871Z,99397.24
2024-02-23T01:55:31.687Z,99399.18
2024-02-23T01:56:07.428Z,99403.75
2024-02-23T01:56:41.516Z,99401.13
2024-02-23T01:57:30.910Z,99400.41
2024-02-23T01:58:09.203Z,99406.91
2024-02-23T01:58:42.664Z,99399.19
2024-02-23T01:59:16.031Z,99394.28
2024-02-23T01:59:50.409Z,99393.06
2024-02-23T02:00:23.742Z,99397.11
2024-02-23T02:01:00.084Z,99398.52
2024-02-23T02:01:33.717Z,99398.18
2024-02-23T02:02:10.425Z,99393.09
2024-02-23T02:02:45.577Z,99393.45
2024-02-23T02:03:18.954Z,99398.36
2024-02-23T02:03:52.449Z,99396.80
2024-02-23T02:04:25.949Z,99391.01
2024-02-23T02:04:59.961Z,99394.52
2024-02-23T02:05:33.600Z,99392.94
2024-02-23T02:06:09.517Z,99392.41
2024-02-23T02:06:43.548Z,99393.98
2024-02-23T02:07:16.999Z,99391.88
2024-02-23T02:07:56.500Z,99390.66
2024-02-23T02:08:30.094Z,99386.09
2024-02-23T02:09:03.649Z,99384.16
2024-02-23T02:09:37.218Z,99386.61
2024-02-23T02:10:11.412Z,99382.23
2024-02-23T02:10:46.914Z,99382.59
2024-02-23T02:11:20.393Z,99376.45
2024-02-23T02:11:54.521Z,99378.20
2024-02-23T02:12:29.359Z,99373.83
2024-02-23T02:13:05.790Z,99371.71
2024-02-23T02:13:39.334Z,99374.35
2024-02-23T02:14:12.929Z,99374.88
2024-02-23T02:14:46.303Z,99377.52
2024-02-23T02:15:19.854Z,99374.36
2024-02-23T02:15:53.235Z,99375.77
2024-02-23T02:16:26.917Z,99372.45
2024-02-23T02:17:00.428Z,99370.70
2024-02-23T02:17:36.964Z,99369.64
2024-02-23T02:18:12.400Z,99367.37
2024-02-23T02:18:47.158Z,99364.73
2024-02-23T02:19:20.638Z,99361.57
2024-02-23T02:19:56.038Z,99355.78
2024-02-23T02:20:34.253Z,99361.92
2024-02-23T02:21:07.968Z,99363.33
2024-02-23T02:21:42.381Z,99361.22
2024-02-23T02:22:15.709Z,99361.58
2024-02-23T02:22:49.125Z,99359.48
2024-02-23T02:23:22.597Z,99356.84
2024-02-23T02:23:57.848Z,99354.38
2024-02-23T02:24:31.274Z,99359.81
2024-02-23T02:25:05.539Z,99355.79
2024-02-23T02:25:39.057Z,99354.38
2024-02-23T02:26:12.613Z,99352.09
2024-02-23T02:26:47.527Z,99351.58
2024-02-23T02:27:23.476Z,99345.77
2024-02-23T02:28:08.614Z,99344.19
2024-02-23T02:28:41.993Z,99347.02
2024-02-23T02:29:15.656Z,99341.21
2024-02-23T02:29:52.180Z,99346.83
2024-02-23T02:30:26.898Z,99339.83
2024-02-23T02:31:03.103Z,99342.81
2024-02-23T02:31:39.118Z,99342.98
2024-02-23T02:32:14.801Z,99339.48
2024-02-23T02:32:48.625Z,99335.27
2024-02-23T02:33:23.626Z,99339.48
2024-02-23T02:34:02.371Z,99334.38
2024-02-23T02:34:35.862Z,99335.45
2024-02-23T02:35:11.748Z,99337.54
2024-02-23T02:35:45.193Z,99330.18
2024-02-23T02:36:18.641Z,99333.84
2024-02-23T02:36:58.761Z,99327.70
2024-02-23T02:37:32.116Z,99324.73
2024-02-23T02:38:05.571Z,99325.60
2024-02-23T02:38:40.933Z,99323.65
2024-02-23T02:39:14.392Z,99322.61
2024-02-23T02:39:47.801Z,99325.95
2024-02-23T02:40:21.527Z,99321.73
2024-02-23T02:40:54.998Z,99325.95
2024-02-23T02:42:34.957Z,99320.52
2024-02-23T02:43:08.644Z,99320.70
2024-02-23T02:43:43.482Z,99319.81
2024-02-23T02:44:17.582Z,99321.23
2024-02-23T02:44:51.066Z,99321.93
2024-02-23T02:45:25.201Z,99318.06
2024-02-23T02:45:59.276Z,99319.13
2024-02-23T02:46:59.070Z,99321.05
2024-02-23T02:47:32.668Z,99318.95
2024-02-23T02:48:06.815Z,99314.73
2024-02-23T02:48:40.339Z,99318.42
2024-02-23T02:49:13.825Z,99317.37
2024-02-23T02:49:47.358Z,99313.15
2024-02-23T02:50:20.918Z,99310.16
2024-02-23T02:50:54.736Z,99312.97
2024-02-23T02:51:28.191Z,99316.67
2024-02-23T02:52:02.086Z,99320.88
2024-02-23T02:52:35.496Z,99319.46
2024-02-23T02:53:09.037Z,99320.36
2024-02-23T02:53:42.934Z,99316.67
2024-02-23T02:54:17.518Z,99313.31
2024-02-23T02:54:51.412Z,99318.95
2024-02-23T02:55:24.926Z,99325.63
2024-02-23T02:55:58.302Z,99327.73
2024-02-23T02:56:31.941Z,99322.65
2024-02-23T02:57:05.407Z,99326.67
2024-02-23T02:57:38.829Z,99330.19
2024-02-23T02:58:14.061Z,99327.04
2024-02-23T02:58:47.551Z,99326.34
2024-02-23T02:59:23.172Z,99326.70
2024-02-23T02:59:58.034Z,99319.14
2024-02-23T03:00:32.500Z,99323.89
2024-02-23T03:01:05.889Z,99331.27
2024-02-23T03:01:41.101Z,99330.38
2024-02-23T03:02:14.615Z,99325.48
2024-02-23T03:02:48.087Z,99328.11
2024-02-23T03:03:21.627Z,99330.41
2024-02-23T03:05:02.252Z,99335.50
2024-02-23T03:05:35.904Z,99335.30
2024-02-23T03:06:09.196Z,99336.36
2024-02-23T03:06:42.344Z,99343.20
2024-02-23T03:07:15.944Z,99342.50
2024-02-23T03:07:49.064Z,99343.90
2024-02-23T03:08:22.463Z,99347.77
2024-02-23T03:08:55.657Z,99342.49
2024-02-23T03:09:28.813Z,99342.49
2024-02-23T03:10:02.124Z,99341.95
2024-02-23T03:10:35.338Z,99343.90
2024-02-23T03:11:08.429Z,99343.71
2024-02-23T03:11:41.526Z,99344.77
2024-02-23T03:12:14.829Z,99350.92
2024-02-23T03:12:48.027Z,99345.83
2024-02-23T03:13:21.039Z,99343.71
2024-02-23T03:13:54.247Z,99349.17
2024-02-23T03:14:27.429Z,99347.94
2024-02-23T03:15:00.616Z,99349.88
2024-02-23T03:15:34.645Z,99348.29
2024-02-23T03:16:07.865Z,99350.40
2024-02-23T03:16:41.012Z,99352.16
2024-02-23T03:17:14.280Z,99351.11
2024-02-23T03:17:47.366Z,99346.37
2024-02-23T03:18:20.860Z,99348.30
2024-02-23T03:18:55.606Z,99343.04
2024-02-23T03:19:28.913Z,99345.14
2024-02-23T03:20:02.495Z,99339.70
2024-02-23T03:20:35.921Z,99340.23
2024-02-23T03:21:10.692Z,99342.52
2024-02-23T03:21:43.839Z,99337.77
2024-02-23T03:22:17.237Z,99337.23
2024-02-23T03:22:50.370Z,99338.82
2024-02-23T03:23:23.415Z,99338.99
2024-02-23T03:23:56.519Z,99340.75
2024-02-23T03:24:29.528Z,99339.17
2024-02-23T03:25:09.244Z,99343.73
2024-02-23T03:25:42.551Z,99337.92
2024-02-23T03:26:18.486Z,99342.84
2024-02-23T03:26:51.945Z,99343.90
2024-02-23T03:27:30.286Z,99342.48
2024-02-23T03:28:03.763Z,99345.48
2024-02-23T03:28:37.194Z,99343.55
2024-02-23T03:29:11.191Z,99343.38
2024-02-23T03:29:44.509Z,99340.91
2024-02-23T03:30:17.684Z,99339.33
2024-02-23T03:30:50.750Z,99336.52
2024-02-23T03:31:23.888Z,99335.30
2024-02-23T03:31:57.463Z,99334.06
2024-02-23T03:32:32.522Z,99334.42
2024-02-23T03:33:06.393Z,99331.08
2024-02-23T03:33:39.801Z,99331.45
2024-02-23T03:34:14.384Z,99332.14
2024-02-23T03:34:47.714Z,99332.68
2024-02-23T03:35:20.928Z,99334.27
2024-02-23T03:35:54.210Z,99333.91
2024-02-23T03:36:27.676Z,99333.38
2024-02-23T03:37:03.601Z,99330.39
2024-02-23T03:37:36.960Z,99328.11
2024-02-23T03:38:10.199Z,99328.99
2024-02-23T03:38:43.492Z,99332.50
2024-02-23T03:39:16.714Z,99331.27
2024-02-23T03:39:50.445Z,99328.98
2024-02-23T03:40:23.694Z,99327.94
2024-02-23T03:40:57.283Z,99326.54
2024-02-23T03:41:30.810Z,99324.77
2024-02-23T03:42:04.863Z,99319.86
2024-02-23T03:42:38.070Z,99328.10
2024-02-23T03:43:11.324Z,99327.41
2024-02-23T03:43:44.520Z,99327.06
2024-02-23T03:44:17.568Z,99330.92
2024-02-23T03:44:51.783Z,99331.27
2024-02-23T03:45:24.941Z,99326.70
2024-02-23T03:45:57.945Z,99320.02
2024-02-23T03:46:31.138Z,99326.33
2024-02-23T03:47:04.116Z,99325.47
2024-02-23T03:47:37.479Z,99325.84
2024-02-23T03:48:10.700Z,99322.31
2024-02-23T03:48:43.669Z,99324.77
2024-02-23T03:49:16.866Z,99325.30
2024-02-23T03:49:50.051Z,99322.66
2024-02-23T03:50:23.240Z,99320.55
2024-02-23T03:50:56.490Z,99321.26
2024-02-23T03:51:29.708Z,99317.92
2024-02-23T03:52:02.922Z,99326.37
2024-02-23T03:52:36.687Z,99323.21
2024-02-23T03:53:09.871Z,99323.20
2024-02-23T03:53:43.078Z,99323.73
2024-02-23T03:54:16.248Z,99317.93
2024-02-23T03:54:50.403Z,99318.64
2024-02-23T03:55:23.718Z,99322.86
2024-02-23T03:55:58.283Z,99319.34
2024-02-23T03:56:31.702Z,99319.88
2024-02-23T03:57:05.251Z,99320.40
2024-02-23T03:57:38.907Z,99315.48
2024-02-23T03:58:12.506Z,99320.05
2024-02-23T03:58:45.593Z,99325.32
2024-02-23T03:59:18.623Z,99320.92
2024-02-23T03:59:54.659Z,99320.56
2024-02-23T04:00:27.745Z,99319.18
2024-02-23T04:01:00.837Z,99320.93
2024-02-23T04:01:33.954Z,99320.77
2024-02-23T04:02:07.026Z,99316.89
2024-02-23T04:02:40.395Z,99316.38
2024-02-23T04:03:13.508Z,99318.48
2024-02-23T04:03:46.537Z,99320.05
2024-02-23T04:04:19.892Z,99321.98
2024-02-23T04:04:53.285Z,99321.46
2024-02-23T04:05:26.461Z,99320.40
2024-02-23T04:05:59.714Z,99321.11
2024-02-23T04:06:35.077Z,99318.66
2024-02-23T04:07:08.355Z,99321.99
2024-02-23T04:07:41.465Z,99317.41
2024-02-23T04:08:14.675Z,99319.89
2024-02-23T04:08:50.973Z,99321.65
2024-02-23T04:09:24.444Z,99321.29
2024-02-23T04:09:57.904Z,99319.89
2024-02-23T04:10:30.960Z,99325.69
2024-02-23T04:11:04.337Z,99324.45
2024-02-23T04:11:37.742Z,99321.45
2024-02-23T04:12:11.077Z,99324.80
2024-02-23T04:12:44.884Z,99321.11
2024-02-23T04:13:19.031Z,99323.04
2024-02-23T04:13:53.016Z,99323.40
2024-02-23T04:14:26.441Z,99321.11
2024-02-23T04:14:59.620Z,99324.09
2024-02-23T04:15:32.783Z,99322.34
2024-02-23T04:16:06.079Z,99323.56
2024-02-23T04:16:39.289Z,99318.48
2024-02-23T04:17:13.202Z,99313.73
2024-02-23T04:17:47.789Z,99317.42
2024-02-23T04:18:21.002Z,99319.53
2024-02-23T04:18:55.036Z,99318.14
2024-02-23T04:19:28.350Z,99319.88
2024-02-23T04:20:06.377Z,99315.50
2024-02-23T04:20:39.597Z,99317.77
2024-02-23T04:21:12.857Z,99319.89
2024-02-23T04:21:45.809Z,99319.71
2024-02-23T04:22:19.003Z,99318.30
2024-02-23T04:22:52.197Z,99316.37
2024-02-23T04:23:25.314Z,99320.42
2024-02-23T04:23:59.097Z,99318.30
2024-02-23T04:24:32.247Z,99316.55
2024-02-23T04:25:06.363Z,99314.61
2024-02-23T04:25:39.682Z,99315.15
2024-02-23T04:26:13.184Z,99314.79
2024-02-23T04:26:46.283Z,99314.42
2024-02-23T04:27:19.287Z,99312.32
2024-02-23T04:27:52.423Z,99314.60
2024-02-23T04:28:27.817Z,99313.91
2024-02-23T04:29:01.068Z,99310.92
2024-02-23T04:29:34.526Z,99307.41
2024-02-23T04:30:08.697Z,99302.31
2024-02-23T04:30:41.866Z,99307.05
2024-02-23T04:31:15.032Z,99307.23
2024-02-23T04:31:48.166Z,99304.06
2024-02-23T04:32:21.345Z,99301.60
2024-02-23T04:32:54.386Z,99303.88
2024-02-23T04:33:27.498Z,99305.11
2024-02-23T04:34:00.662Z,99303.70
2024-02-23T04:34:34.106Z,99305.47
2024-02-23T04:35:07.708Z,99297.02
2024-02-23T04:35:40.983Z,99303.55
2024-02-23T04:36:14.499Z,99299.14
2024-02-23T04:36:47.990Z,99303.70
2024-02-23T04:37:21.116Z,99302.31
2024-02-23T04:37:54.206Z,99301.77
2024-02-23T04:38:27.390Z,99300.73
2024-02-23T04:39:00.408Z,99305.11
2024-02-23T04:39:33.814Z,99301.27
2024-02-23T04:40:07.901Z,99298.25
2024-02-23T04:40:41.027Z,99295.61
2024-02-23T04:41:14.062Z,99298.43
2024-02-23T04:41:47.171Z,99294.73
2024-02-23T04:42:20.152Z,99295.79
2024-02-23T04:42:53.178Z,99293.15
2024-02-23T04:43:26.649Z,99289.63
2024-02-23T04:44:02.824Z,99290.69
2024-02-23T04:44:37.326Z,99288.58
2024-02-23T04:45:10.647Z,99290.33
2024-02-23T04:45:43.756Z,99289.28
2024-02-23T04:46:16.705Z,99293.84
2024-02-23T04:46:49.863Z,99289.45
2024-02-23T04:47:23.489Z,99292.44
2024-02-23T04:47:56.644Z,99288.21
2024-02-23T04:48:32.196Z,99287.86
2024-02-23T04:49:05.528Z,99290.33
2024-02-23T04:49:38.956Z,99290.32
2024-02-23T04:50:12.414Z,99295.77
2024-02-23T04:50:45.516Z,99289.10
2024-02-23T04:51:18.620Z,99296.13
2024-02-23T04:51:51.732Z,99295.42
2024-02-23T04:52:24.806Z,99297.70
2024-02-23T04:52:57.949Z,99300.50
2024-02-23T04:53:31.640Z,99298.05
2024-02-23T04:54:04.851Z,99301.55
2024-02-23T04:54:37.756Z,99300.67
2024-02-23T04:55:10.955Z,99301.56
2024-02-23T04:55:43.897Z,99302.97
2024-02-23T04:56:17.071Z,99299.45
2024-02-23T04:56:51.651Z,99305.23
2024-02-23T04:57:24.723Z,99304.00
2024-02-23T04:57:57.924Z,99300.66
2024-02-23T04:58:31.097Z,99303.64
2024-02-23T04:59:04.667Z,99302.24
2024-02-23T04:59:37.877Z,99303.14
2024-02-23T05:00:11.658Z,99297.84
2024-02-23T05:00:44.834Z,99303.30
2024-02-23T05:01:17.776Z,99299.97
2024-02-23T05:01:50.990Z,99301.55
2024-02-23T05:02:24.216Z,99304.36
2024-02-23T05:02:58.131Z,99301.90
2024-02-23T05:03:31.267Z,99302.59
2024-02-23T05:04:04.742Z,99300.48
2024-02-23T05:04:38.108Z,99297.67
2024-02-23T05:05:11.273Z,99296.09
2024-02-23T05:05:44.523Z,99295.41
2024-02-23T05:06:17.720Z,99294.17
2024-02-23T05:06:50.921Z,99296.81
2024-02-23T05:07:24.074Z,99293.45
2024-02-23T05:07:57.141Z,99291.54
2024-02-23T05:08:31.759Z,99291.37
2024-02-23T05:09:05.055Z,99291.02
2024-02-23T05:09:38.133Z,99292.06
2024-02-23T05:10:11.323Z,99291.02
2024-02-23T05:10:44.515Z,99290.66
2024-02-23T05:11:17.702Z,99290.83
2024-02-23T05:11:51.232Z,99290.13
2024-02-23T05:12:24.361Z,99294.15
2024-02-23T05:12:57.415Z,99293.64
2024-02-23T05:13:30.558Z,99293.63
2024-02-23T05:14:03.642Z,99294.67
2024-02-23T05:14:36.936Z,99297.66
2024-02-23T05:15:10.300Z,99294.48
2024-02-23T05:15:43.556Z,99293.43
2024-02-23T05:16:16.661Z,99292.55
2024-02-23T05:16:49.614Z,99293.43
2024-02-23T05:17:22.769Z,99296.25
2024-02-23T05:17:56.054Z,99292.38
2024-02-23T05:18:29.035Z,99287.11
2024-02-23T05:19:02.152Z,99288.17
2024-02-23T05:19:35.205Z,99288.88
2024-02-23T05:20:11.466Z,99292.55
2024-02-23T05:20:44.679Z,99291.67
2024-02-23T05:21:18.391Z,99293.78
2024-02-23T05:21:51.578Z,99297.46
2024-02-23T05:22:24.735Z,99294.48
2024-02-23T05:22:57.668Z,99291.86
2024-02-23T05:23:30.832Z,99291.86
2024-02-23T05:24:04.513Z,99291.15
2024-02-23T05:24:37.613Z,99290.45
2024-02-23T05:25:10.730Z,99291.52
2024-02-23T05:25:43.931Z,99295.02
2024-02-23T05:26:17.043Z,99291.16
2024-02-23T05:26:50.092Z,99293.08
2024-02-23T05:27:23.201Z,99299.93
2024-02-23T05:27:56.204Z,99297.83
2024-02-23T05:28:29.314Z,99299.58
2024-02-23T05:29:03.576Z,99300.28
2024-02-23T05:29:36.828Z,99294.13
2024-02-23T05:30:10.888Z,99296.41
2024-02-23T05:30:43.960Z,99295.16
2024-02-23T05:31:17.073Z,99299.21
2024-02-23T05:31:52.659Z,99297.45
2024-02-23T05:32:25.853Z,99296.58
2024-02-23T05:32:59.683Z,99295.89
2024-02-23T05:33:33.056Z,99295.19
2024-02-23T05:34:06.181Z,99293.62
2024-02-23T05:34:39.587Z,99297.83
2024-02-23T05:35:12.949Z,99298.54
2024-02-23T05:35:46.347Z,99300.47
2024-02-23T05:36:20.951Z,99298.72
2024-02-23T05:36:54.062Z,99299.26
2024-02-23T05:37:28.155Z,99295.22
2024-02-23T05:38:01.577Z,99301.55
2024-02-23T05:38:34.795Z,99296.63
2024-02-23T05:39:08.719Z,99297.14
2024-02-23T05:39:41.949Z,99293.46
2024-02-23T05:40:15.624Z,99300.85
2024-02-23T05:40:49.682Z,99299.98
2024-02-23T05:41:22.896Z,99293.81
2024-02-23T05:41:56.383Z,99292.77
2024-02-23T05:42:29.506Z,99294.52
2024-02-23T05:43:02.765Z,99294.02
2024-02-23T05:43:36.472Z,99292.42
2024-02-23T05:44:09.736Z,99294.01
2024-02-23T05:44:45.928Z,99292.44
2024-02-23T05:45:19.516Z,99285.58
2024-02-23T05:45:52.826Z,99285.58
2024-02-23T05:46:26.062Z,99284.34
2024-02-23T05:46:59.227Z,99280.13
2024-02-23T05:47:32.913Z,99283.12
2024-02-23T05:48:06.665Z,99278.73
2024-02-23T05:48:39.942Z,99281.73
2024-02-23T05:49:13.849Z,99277.50
2024-02-23T05:49:47.172Z,99278.02
2024-02-23T05:50:20.331Z,99275.91
2024-02-23T05:50:53.873Z,99275.39
2024-02-23T05:51:27.028Z,99275.40
2024-02-23T05:52:00.217Z,99277.67
2024-02-23T05:52:33.945Z,99274.70
2024-02-23T05:53:07.151Z,99274.69
2024-02-23T05:53:42.340Z,99278.38
2024-02-23T05:54:15.447Z,99275.40
2024-02-23T05:54:51.066Z,99279.61
2024-02-23T05:55:25.528Z,99278.73
2024-02-23T05:55:58.519Z,99276.98
2024-02-23T05:56:31.891Z,99276.45
2024-02-23T05:57:05.961Z,99281.71
2024-02-23T05:57:39.182Z,99280.84
2024-02-23T05:58:14.789Z,99290.84
2024-02-23T05:58:47.856Z,99285.05
2024-02-23T05:59:20.911Z,99286.98
2024-02-23T05:59:55.040Z,99283.46
2024-02-23T06:00:28.638Z,99286.09
2024-02-23T06:01:02.602Z,99290.13
2024-02-23T06:01:36.058Z,99291.53
2024-02-23T06:02:09.544Z,99288.73
2024-02-23T06:02:43.158Z,99291.35
2024-02-23T06:03:16.633Z,99286.25
2024-02-23T06:03:50.105Z,99282.57
2024-02-23T06:04:24.972Z,99290.48
2024-02-23T06:04:58.728Z,99295.04
2024-02-23T06:05:32.367Z,99293.48
2024-02-23T06:06:09.908Z,99288.91
2024-02-23T06:06:45.378Z,99293.66
2024-02-23T06:07:24.674Z,99291.90
2024-02-23T06:07:58.283Z,99289.44
2024-02-23T06:08:31.773Z,99290.32
2024-02-23T06:09:07.009Z,99288.91
2024-02-23T06:09:40.557Z,99289.80
2024-02-23T06:10:14.034Z,99289.09
2024-02-23T06:10:47.508Z,99283.65
2024-02-23T06:11:21.158Z,99286.81
2024-02-23T06:11:54.839Z,99286.09
2024-02-23T06:12:28.513Z,99287.85
2024-02-23T06:13:04.304Z,99288.90
2024-02-23T06:13:38.388Z,99290.13
2024-02-23T06:14:12.781Z,99293.45
2024-02-23T06:14:46.225Z,99292.76
2024-02-23T06:15:19.682Z,99288.36
2024-02-23T06:15:53.549Z,99286.96
2024-02-23T06:16:27.020Z,99286.42
2024-02-23T06:17:00.479Z,99292.41
2024-02-23T06:17:34.090Z,99291.34
2024-02-23T06:18:07.813Z,99285.55
2024-02-23T06:18:42.415Z,99284.33
2024-02-23T06:19:15.940Z,99284.67
2024-02-23T06:19:49.642Z,99284.49
2024-02-23T06:20:23.135Z,99288.72
2024-02-23T06:20:56.629Z,99289.59
2024-02-23T06:21:30.121Z,99293.98
2024-02-23T06:22:03.710Z,99292.05
2024-02-23T06:22:37.105Z,99290.48
2024-02-23T06:23:10.533Z,99290.83
2024-02-23T06:23:44.091Z,99288.36
2024-02-23T06:24:18.189Z,99289.05
2024-02-23T06:24:51.675Z,99288.36
2024-02-23T06:25:25.025Z,99287.84
2024-02-23T06:25:58.509Z,99289.94
2024-02-23T06:26:32.081Z,99288.53
2024-02-23T06:27:05.955Z,99288.52
2024-02-23T06:27:39.708Z,99289.58
2024-02-23T06:28:13.450Z,99293.61
2024-02-23T06:28:47.147Z,99292.91
2024-02-23T06:29:21.109Z,99289.75
2024-02-23T06:29:57.098Z,99290.98
2024-02-23T06:30:30.622Z,99288.35
2024-02-23T06:31:05.274Z,99290.27
2024-02-23T06:31:39.480Z,99292.73
2024-02-23T06:32:13.000Z,99289.40
2024-02-23T06:32:47.401Z,99282.73
2024-02-23T06:33:21.402Z,99290.27
2024-02-23T06:33:55.151Z,99292.55
2024-02-23T06:34:28.771Z,99294.13
2024-02-23T06:35:02.441Z,99296.42
2024-02-23T06:35:35.991Z,99297.48
2024-02-23T06:36:10.825Z,99301.52
2024-02-23T06:36:44.547Z,99298.89
2024-02-23T06:37:18.190Z,99300.11
2024-02-23T06:37:51.694Z,99301.52
2024-02-23T06:38:25.236Z,99302.22
2024-02-23T06:38:58.862Z,99299.23
2024-02-23T06:39:32.586Z,99299.08
2024-02-23T06:40:08.488Z,99299.75